Terminal Aerodrome Forecast
Issued by NWS

Home | Current Version | Previous Version | Text Only | Print | Product List | Glossary On
Versions: 1 2 3 4 5 6 7 8 9 10 11 12
000
FTUS45 KREV 161735
TAFTRK
TAF
KTRK 161735Z 1618/1718 VRB03KT P6SM BKN250
      TEMPO 1622/1702 27008KT=

USA.gov is the U.S. government's official web portal to all federal, state and local government web resources and services.